createdAt,value
2017-01-15T00:00:33.229Z,1006.304
2017-01-15T00:03:36.861Z,1006.349
2017-01-15T00:06:40.831Z,1006.305
2017-01-15T00:09:39.906Z,1006.340
2017-01-15T00:12:50.652Z,1006.365
2017-01-15T00:15:49.627Z,1006.383
2017-01-15T00:19:00.072Z,1006.379
2017-01-15T00:22:03.546Z,1006.455
2017-01-15T00:25:06.944Z,1006.479
2017-01-15T00:28:10.872Z,1006.500
2017-01-15T00:31:14.542Z,1006.498
2017-01-15T00:34:12.703Z,1006.569
2017-01-15T00:37:23.123Z,1006.640
2017-01-15T00:40:28.163Z,1006.723
2017-01-15T00:43:31.825Z,1006.739
2017-01-15T00:46:36.697Z,1006.774
2017-01-15T00:52:44.494Z,1006.881
2017-01-15T00:55:48.336Z,1006.903
2017-01-15T00:58:52.283Z,1006.882
2017-01-15T01:01:55.965Z,1006.943
2017-01-15T01:04:59.705Z,1006.962
2017-01-15T01:08:03.480Z,1006.977
2017-01-15T01:11:07.088Z,1007.003
2017-01-15T01:14:11.855Z,1007.014
2017-01-15T01:17:15.651Z,1007.055
2017-01-15T01:20:20.692Z,1007.070
2017-01-15T01:23:25.605Z,1007.099
2017-01-15T01:29:34.789Z,1007.159
2017-01-15T01:32:39.420Z,1007.200
2017-01-15T01:35:44.440Z,1007.173
2017-01-15T01:38:47.757Z,1007.202
2017-01-15T01:44:56.049Z,1007.244
2017-01-15T01:48:00.661Z,1007.260
2017-01-15T01:51:03.930Z,1007.267
2017-01-15T01:54:07.176Z,1007.307
2017-01-15T01:57:10.665Z,1007.293
2017-01-15T02:00:08.551Z,1007.296
2017-01-15T02:03:19.024Z,1007.336
2017-01-15T02:06:23.231Z,1007.340
2017-01-15T02:09:27.102Z,1007.413
2017-01-15T02:12:31.295Z,1007.444
2017-01-15T02:15:35.392Z,1007.503
2017-01-15T02:18:39.076Z,1007.529
2017-01-15T02:21:43.003Z,1007.543
2017-01-15T02:24:46.796Z,1007.583
2017-01-15T02:27:50.798Z,1007.639
2017-01-15T02:30:55.072Z,1007.685
2017-01-15T02:37:03.776Z,1007.771
2017-01-15T02:40:00.653Z,1007.832
2017-01-15T02:43:07.643Z,1007.869
2017-01-15T02:46:08.969Z,1007.863
2017-01-15T02:49:10.447Z,1007.894
2017-01-15T02:52:12.211Z,1007.888
2017-01-15T02:55:16.900Z,1007.893
2017-01-15T02:58:19.816Z,1007.909
2017-01-15T03:04:27.939Z,1007.955
2017-01-15T03:10:36.119Z,1008.033
2017-01-15T03:19:49.867Z,1008.062
2017-01-15T03:22:53.876Z,1008.061
2017-01-15T03:25:58.921Z,1008.057
2017-01-15T03:29:02.775Z,1008.083
2017-01-15T03:32:06.712Z,1008.099
2017-01-15T03:35:11.284Z,1008.083
2017-01-15T03:38:15.074Z,1008.132
2017-01-15T03:41:19.258Z,1008.168
2017-01-15T03:44:23.052Z,1008.191
2017-01-15T03:47:27.276Z,1008.216
2017-01-15T03:50:31.270Z,1008.263
2017-01-15T03:53:35.216Z,1008.300
2017-01-15T03:56:39.399Z,1008.328
2017-01-15T03:59:44.141Z,1008.363
2017-01-15T04:02:49.328Z,1008.390
2017-01-15T04:05:53.098Z,1008.427
2017-01-15T04:08:58.202Z,1008.467
2017-01-15T04:12:02.091Z,1008.526
2017-01-15T04:15:06.046Z,1008.585
2017-01-15T04:18:10.718Z,1008.623
2017-01-15T04:21:15.981Z,1008.660
2017-01-15T04:27:23.698Z,1008.828
2017-01-15T04:30:27.477Z,1008.832
2017-01-15T04:33:31.479Z,1008.894
2017-01-15T04:36:36.436Z,1008.938
2017-01-15T04:39:40.575Z,1008.997
2017-01-15T04:42:38.159Z,1009.003
2017-01-15T04:45:49.020Z,1009.043
2017-01-15T04:48:52.560Z,1009.096
2017-01-15T04:51:57.803Z,1009.122
2017-01-15T04:55:01.891Z,1009.188
2017-01-15T04:58:05.545Z,1009.220
2017-01-15T05:01:10.457Z,1009.224
2017-01-15T05:04:14.363Z,1009.266
2017-01-15T05:07:17.724Z,1009.272
2017-01-15T05:10:22.660Z,1009.307
2017-01-15T05:13:26.126Z,1009.335
2017-01-15T05:16:30.149Z,1009.383
2017-01-15T05:19:33.917Z,1009.415
2017-01-15T05:22:38.116Z,1009.414
2017-01-15T05:25:41.078Z,1009.477
2017-01-15T05:28:45.829Z,1009.492
2017-01-15T05:31:49.484Z,1009.564
2017-01-15T05:37:59.660Z,1009.555
2017-01-15T05:44:08.533Z,1009.687
2017-01-15T05:47:06.534Z,1009.730
2017-01-15T05:50:17.337Z,1009.798
2017-01-15T05:53:21.503Z,1009.834
2017-01-15T05:56:19.140Z,1009.939
2017-01-15T05:59:29.939Z,1010.018
2017-01-15T06:02:33.901Z,1010.083
2017-01-15T06:05:37.886Z,1010.138
2017-01-15T06:08:35.869Z,1010.210
2017-01-15T06:11:45.847Z,1010.218
2017-01-15T06:14:43.940Z,1010.251
2017-01-15T06:20:59.817Z,1010.321
2017-01-15T06:24:04.156Z,1010.368
2017-01-15T06:27:08.203Z,1010.394
2017-01-15T06:33:09.494Z,1010.519
2017-01-15T06:36:20.263Z,1010.579
2017-01-15T06:39:24.404Z,1010.641
2017-01-15T06:42:28.436Z,1010.707
2017-01-15T06:45:33.417Z,1010.745
2017-01-15T06:48:36.895Z,1010.820
2017-01-15T06:51:34.303Z,1010.898
2017-01-15T06:54:39.170Z,1010.982
2017-01-15T06:57:49.665Z,1011.047
2017-01-15T07:00:53.429Z,1011.128
2017-01-15T07:03:56.935Z,1011.198
2017-01-15T07:06:55.648Z,1011.263
2017-01-15T07:09:59.897Z,1011.290
2017-01-15T07:13:10.833Z,1011.368
2017-01-15T07:16:08.261Z,1011.427
2017-01-15T07:22:23.626Z,1011.599
2017-01-15T07:25:27.660Z,1011.659
2017-01-15T07:28:32.723Z,1011.744
2017-01-15T07:31:31.436Z,1011.828
2017-01-15T07:34:35.711Z,1011.847
2017-01-15T07:37:40.603Z,1011.855
2017-01-15T07:40:45.517Z,1011.899
2017-01-15T07:43:50.451Z,1011.941
2017-01-15T07:46:55.424Z,1011.978
2017-01-15T07:50:00.264Z,1012.021
2017-01-15T07:53:05.313Z,1012.064
2017-01-15T07:59:18.351Z,1012.206
2017-01-15T08:02:15.868Z,1012.240
2017-01-15T08:05:20.793Z,1012.292
2017-01-15T08:08:25.586Z,1012.455
2017-01-15T08:11:30.113Z,1012.510
2017-01-15T08:14:34.868Z,1012.576
2017-01-15T08:17:39.562Z,1012.658
2017-01-15T08:20:44.307Z,1012.730
2017-01-15T08:23:55.132Z,1012.783
2017-01-15T08:29:58.428Z,1012.841
2017-01-15T08:33:03.133Z,1012.893
2017-01-15T08:36:12.829Z,1012.926
2017-01-15T08:39:10.679Z,1012.940
2017-01-15T08:42:21.369Z,1012.956
2017-01-15T08:45:24.594Z,1012.990
2017-01-15T08:48:29.573Z,1013.030
2017-01-15T08:51:33.623Z,1013.114
2017-01-15T08:54:37.548Z,1013.142
2017-01-15T09:00:46.249Z,1013.190
2017-01-15T09:03:50.152Z,1013.245
2017-01-15T09:06:55.232Z,1013.291
2017-01-15T09:16:08.400Z,1013.433
2017-01-15T09:19:12.405Z,1013.471
2017-01-15T09:22:15.979Z,1013.502
2017-01-15T09:25:20.001Z,1013.563
2017-01-15T09:28:23.969Z,1013.608
2017-01-15T09:31:28.132Z,1013.640
2017-01-15T09:34:32.111Z,1013.656
2017-01-15T09:37:30.286Z,1013.662
2017-01-15T09:40:40.826Z,1013.713
2017-01-15T09:43:44.562Z,1013.745
2017-01-15T09:46:42.662Z,1013.770
2017-01-15T09:49:47.584Z,1013.837
2017-01-15T09:52:52.039Z,1013.820
2017-01-15T09:55:56.798Z,1013.864
2017-01-15T09:59:01.077Z,1013.941
2017-01-15T10:02:05.841Z,1013.960
2017-01-15T10:05:16.320Z,1013.987
2017-01-15T10:08:13.801Z,1013.993
2017-01-15T10:14:29.544Z,1014.102
2017-01-15T10:17:33.676Z,1014.118
2017-01-15T10:20:37.465Z,1014.130
2017-01-15T10:23:35.301Z,1014.206
2017-01-15T10:26:40.119Z,1014.272
2017-01-15T10:29:44.826Z,1014.274
2017-01-15T10:32:55.847Z,1014.338
2017-01-15T10:35:53.915Z,1014.395
2017-01-15T10:39:04.569Z,1014.393
2017-01-15T10:45:07.345Z,1014.461
2017-01-15T10:48:11.897Z,1014.509
2017-01-15T10:51:16.142Z,1014.514
2017-01-15T10:54:21.580Z,1014.578
2017-01-15T11:00:31.250Z,1014.653
2017-01-15T11:03:42.224Z,1014.671
2017-01-15T11:09:45.618Z,1014.732
2017-01-15T11:12:50.355Z,1014.788
2017-01-15T11:15:55.271Z,1014.821
2017-01-15T11:18:59.637Z,1014.818
2017-01-15T11:22:10.387Z,1014.801
2017-01-15T11:25:14.313Z,1014.811
2017-01-15T11:28:12.681Z,1014.812
2017-01-15T11:31:17.532Z,1014.839
2017-01-15T11:34:28.176Z,1014.889
2017-01-15T11:37:26.120Z,1014.909
2017-01-15T11:40:37.009Z,1014.953
2017-01-15T11:46:41.468Z,1015.053
2017-01-15T11:49:45.995Z,1015.110
2017-01-15T11:52:50.600Z,1015.133
2017-01-15T11:55:55.397Z,1015.159
2017-01-15T11:59:00.051Z,1015.260
2017-01-15T12:02:04.234Z,1015.279
2017-01-15T12:05:09.580Z,1015.332
2017-01-15T12:08:13.992Z,1015.379
2017-01-15T12:11:18.499Z,1015.346
2017-01-15T12:14:18.064Z,1015.335
2017-01-15T12:17:28.376Z,1015.395
2017-01-15T12:20:33.077Z,1015.374
2017-01-15T12:23:37.593Z,1015.420
2017-01-15T12:29:46.653Z,1015.450
2017-01-15T12:32:51.277Z,1015.510
2017-01-15T12:35:55.956Z,1015.541
2017-01-15T12:39:06.063Z,1015.568
2017-01-15T12:45:08.706Z,1015.631
2017-01-15T12:48:19.316Z,1015.633
2017-01-15T12:51:18.280Z,1015.648
2017-01-15T12:54:22.775Z,1015.665
2017-01-15T12:57:27.515Z,1015.761
2017-01-15T13:00:32.225Z,1015.805
2017-01-15T13:03:43.008Z,1015.887
2017-01-15T13:09:51.917Z,1016.019
2017-01-15T13:12:57.271Z,1016.090
2017-01-15T13:15:55.408Z,1016.123
2017-01-15T13:19:05.597Z,1016.141
2017-01-15T13:22:10.046Z,1016.180
2017-01-15T13:25:07.968Z,1016.180
2017-01-15T13:28:11.822Z,1016.258
2017-01-15T13:31:16.055Z,1016.270
2017-01-15T13:34:20.245Z,1016.319
2017-01-15T13:37:30.872Z,1016.342
2017-01-15T13:40:34.488Z,1016.347
2017-01-15T13:43:29.694Z,1016.405
2017-01-15T13:46:37.225Z,1016.513
2017-01-15T13:55:39.663Z,1016.627
2017-01-15T13:58:37.671Z,1016.677
2017-01-15T14:01:47.927Z,1016.722
2017-01-15T14:04:46.496Z,1016.796
2017-01-15T14:07:57.215Z,1016.824
2017-01-15T14:10:54.007Z,1016.806
2017-01-15T14:14:04.761Z,1016.868
2017-01-15T14:17:08.761Z,1016.896
2017-01-15T14:20:06.683Z,1016.948
2017-01-15T14:23:11.399Z,1016.952
2017-01-15T14:26:16.084Z,1017.009
2017-01-15T14:29:20.872Z,1017.014
2017-01-15T14:32:25.498Z,1017.047
2017-01-15T14:35:35.999Z,1017.096
2017-01-15T14:41:40.081Z,1017.194
2017-01-15T14:47:49.774Z,1017.249
2017-01-15T14:50:54.583Z,1017.298
2017-01-15T14:53:58.628Z,1017.335
2017-01-15T14:57:03.343Z,1017.424
2017-01-15T15:00:14.046Z,1017.466
2017-01-15T15:03:12.031Z,1017.538
2017-01-15T15:06:16.806Z,1017.626
2017-01-15T15:09:21.534Z,1017.674
2017-01-15T15:12:26.247Z,1017.725
2017-01-15T15:18:36.293Z,1017.790
2017-01-15T15:21:40.416Z,1017.822
2017-01-15T15:24:45.047Z,1017.861
2017-01-15T15:27:50.070Z,1017.932
2017-01-15T15:30:54.253Z,1017.942
2017-01-15T15:33:58.720Z,1017.986
2017-01-15T15:40:14.466Z,1018.061
2017-01-15T15:43:12.054Z,1018.090
2017-01-15T15:46:16.648Z,1018.092
2017-01-15T15:52:32.149Z,1018.144
2017-01-15T15:55:30.169Z,1018.139
2017-01-15T15:58:34.415Z,1018.224
2017-01-15T16:01:44.991Z,1018.265
2017-01-15T16:04:48.826Z,1018.315
2017-01-15T16:07:46.527Z,1018.355
2017-01-15T16:10:51.253Z,1018.426
2017-01-15T16:13:55.554Z,1018.498
2017-01-15T16:17:06.386Z,1018.515
2017-01-15T16:23:14.441Z,1018.545
2017-01-15T16:26:18.848Z,1018.554
2017-01-15T16:29:22.444Z,1018.609
2017-01-15T16:35:29.543Z,1018.654
2017-01-15T16:38:27.174Z,1018.689
2017-01-15T16:41:37.823Z,1018.770
2017-01-15T16:44:41.568Z,1018.782
2017-01-15T16:47:46.058Z,1018.796
2017-01-15T16:50:49.587Z,1018.800
2017-01-15T16:53:54.677Z,1018.810
2017-01-15T17:03:07.782Z,1018.811
2017-01-15T17:12:20.552Z,1018.898
2017-01-15T17:18:22.668Z,1018.972
2017-01-15T17:27:39.376Z,1019.039
2017-01-15T17:36:52.056Z,1019.126
2017-01-15T17:42:58.787Z,1019.123
2017-01-15T17:46:03.000Z,1019.161
2017-01-15T17:49:07.883Z,1019.206
2017-01-15T17:52:12.401Z,1019.289
2017-01-15T17:55:16.014Z,1019.339
2017-01-15T17:58:19.923Z,1019.370
2017-01-15T18:01:23.638Z,1019.444
2017-01-15T18:04:27.115Z,1019.492
2017-01-15T18:10:34.327Z,1019.529
2017-01-15T18:13:37.847Z,1019.522
2017-01-15T18:22:50.477Z,1019.651
2017-01-15T18:25:53.625Z,1019.693
2017-01-15T18:28:58.293Z,1019.708
2017-01-15T18:31:56.027Z,1019.772
2017-01-15T18:35:06.557Z,1019.858
2017-01-15T18:38:10.765Z,1019.885
2017-01-15T18:41:13.761Z,1019.903
2017-01-15T18:47:15.766Z,1019.928
2017-01-15T18:50:25.170Z,1019.959
2017-01-15T18:53:23.261Z,1020.006
2017-01-15T18:56:28.198Z,1020.037
2017-01-15T18:59:38.743Z,1020.103
2017-01-15T19:02:42.293Z,1020.143
2017-01-15T19:08:50.882Z,1020.171
2017-01-15T19:11:54.416Z,1020.144
2017-01-15T19:14:58.067Z,1020.153
2017-01-15T19:18:01.392Z,1020.247
2017-01-15T19:24:08.299Z,1020.453
2017-01-15T19:27:12.051Z,1020.478
2017-01-15T19:30:16.524Z,1020.482
2017-01-15T19:33:19.982Z,1020.513
2017-01-15T19:42:31.569Z,1020.617
2017-01-15T19:48:38.740Z,1020.604
2017-01-15T19:51:42.360Z,1020.656
2017-01-15T20:07:02.180Z,1020.839
2017-01-15T20:13:10.732Z,1020.897
2017-01-15T20:16:14.121Z,1020.954
2017-01-15T20:28:29.812Z,1021.064
2017-01-15T20:31:32.343Z,1021.070
2017-01-15T20:37:39.980Z,1021.128
2017-01-15T20:43:48.530Z,1021.187
2017-01-15T20:56:03.581Z,1021.188
2017-01-15T20:59:07.041Z,1021.187
2017-01-15T21:05:14.366Z,1021.261
2017-01-15T21:08:17.827Z,1021.267
2017-01-15T21:11:21.353Z,1021.298
2017-01-15T21:14:24.998Z,1021.319
2017-01-15T21:20:32.274Z,1021.470
2017-01-15T21:23:36.861Z,1021.525
2017-01-15T21:26:35.687Z,1021.583
2017-01-15T21:32:49.093Z,1021.643
2017-01-15T21:38:55.333Z,1021.711
2017-01-15T21:45:02.785Z,1021.789
2017-01-15T22:00:20.839Z,1021.966
2017-01-15T22:03:23.928Z,1022.003
2017-01-15T22:06:28.894Z,1022.062
2017-01-15T22:09:31.910Z,1022.089
2017-01-15T22:12:36.190Z,1022.133
2017-01-15T22:40:06.748Z,1022.225
2017-01-15T22:43:08.823Z,1022.201
2017-01-15T22:58:23.433Z,1022.369
2017-01-15T23:10:37.563Z,1022.407
2017-01-15T23:13:40.221Z,1022.427
2017-01-15T23:25:51.978Z,1022.474
2017-01-15T23:31:58.902Z,1022.575
2017-01-15T23:44:12.928Z,1022.727
2017-01-15T23:47:15.205Z,1022.722
2017-01-15T23:56:24.927Z,1022.742
2017-01-15T23:59:27.697Z,1022.736
